createdAt,value
2022-07-25T00:01:55.067Z,73.75
2022-07-25T00:04:23.272Z,73.70
2022-07-25T00:06:49.672Z,74.97
2022-07-25T00:09:16.096Z,75.15
2022-07-25T00:11:48.994Z,74.54
2022-07-25T00:14:15.463Z,74.61
2022-07-25T00:16:41.970Z,74.58
2022-07-25T00:19:10.143Z,74.88
2022-07-25T00:21:36.582Z,74.64
2022-07-25T00:24:03.510Z,74.92
2022-07-25T00:26:30.245Z,74.88
2022-07-25T00:29:02.989Z,75.28
2022-07-25T00:31:29.500Z,75.15
2022-07-25T00:33:56.057Z,74.88
2022-07-25T00:36:23.257Z,75.66
2022-07-25T00:38:49.685Z,76.20
2022-07-25T00:41:16.212Z,76.37
2022-07-25T00:43:44.328Z,76.78
2022-07-25T00:46:15.416Z,76.91
2022-07-25T00:48:46.043Z,76.33
2022-07-25T00:51:12.535Z,76.61
2022-07-25T00:53:39.509Z,76.13
2022-07-25T00:56:06.822Z,76.28
2022-07-25T00:58:33.803Z,76.52
2022-07-25T01:01:01.352Z,75.94
2022-07-25T01:03:28.168Z,75.55
2022-07-25T01:05:54.653Z,76.19
2022-07-25T01:08:22.214Z,77.11
2022-07-25T01:10:50.957Z,75.93
2022-07-25T01:13:17.550Z,76.07
2022-07-25T01:15:44.231Z,76.73
2022-07-25T01:18:11.215Z,77.20
2022-07-25T01:20:37.743Z,77.50
2022-07-25T01:23:04.229Z,77.48
2022-07-25T01:25:30.714Z,77.27
2022-07-25T01:27:57.845Z,77.29
2022-07-25T01:30:25.127Z,77.31
2022-07-25T01:32:51.751Z,77.05
2022-07-25T01:35:18.216Z,77.60
2022-07-25T01:37:45.767Z,77.66
2022-07-25T01:40:13.650Z,77.60
2022-07-25T01:42:40.135Z,77.10
2022-07-25T01:45:07.337Z,77.40
2022-07-25T01:47:33.772Z,77.13
2022-07-25T01:50:00.220Z,77.21
2022-07-25T01:52:32.954Z,77.34
2022-07-25T01:55:06.283Z,77.67
2022-07-25T01:57:32.937Z,77.92
2022-07-25T01:59:59.653Z,77.37
2022-07-25T02:02:26.330Z,78.06
2022-07-25T02:04:54.441Z,77.89
2022-07-25T02:07:21.107Z,78.07
2022-07-25T02:09:47.520Z,78.87
2022-07-25T02:12:20.012Z,79.07
2022-07-25T02:14:46.546Z,79.07
2022-07-25T02:17:13.038Z,78.62
2022-07-25T02:19:39.557Z,77.99
2022-07-25T02:22:06.192Z,78.12
2022-07-25T02:24:32.780Z,78.25
2022-07-25T02:26:59.246Z,79.09
2022-07-25T02:29:26.031Z,79.37
2022-07-25T02:31:53.056Z,79.26
2022-07-25T02:34:19.565Z,78.66
2022-07-25T02:36:49.948Z,78.60
2022-07-25T02:39:16.706Z,78.35
2022-07-25T02:41:43.921Z,78.88
2022-07-25T02:44:10.895Z,79.11
2022-07-25T02:46:37.394Z,78.85
2022-07-25T02:49:04.958Z,78.95
2022-07-25T02:51:31.423Z,79.21
2022-07-25T02:53:58.898Z,79.59
2022-07-25T02:56:30.092Z,80.05
2022-07-25T02:59:04.960Z,80.48
2022-07-25T03:01:31.507Z,80.43
2022-07-25T03:03:58.059Z,80.40
2022-07-25T03:06:24.521Z,79.85
2022-07-25T03:08:50.907Z,79.87
2022-07-25T03:11:18.004Z,81.12
2022-07-25T03:13:44.384Z,81.17
2022-07-25T03:16:11.062Z,81.07
2022-07-25T03:18:37.711Z,80.90
2022-07-25T03:21:04.482Z,80.55
2022-07-25T03:23:31.093Z,81.34
2022-07-25T03:25:57.764Z,81.08
2022-07-25T03:28:24.893Z,80.97
2022-07-25T03:30:52.078Z,80.90
2022-07-25T03:33:18.705Z,81.04
2022-07-25T03:35:45.281Z,81.03
2022-07-25T03:38:11.772Z,80.95
2022-07-25T03:40:38.283Z,80.56
2022-07-25T03:43:04.821Z,80.85
2022-07-25T03:45:31.227Z,80.82
2022-07-25T03:47:57.644Z,80.68
2022-07-25T03:50:24.052Z,80.99
2022-07-25T03:52:50.493Z,80.68
2022-07-25T03:55:16.909Z,80.71
2022-07-25T03:57:43.285Z,80.80
2022-07-25T04:00:12.240Z,80.97
2022-07-25T04:02:38.763Z,80.41
2022-07-25T04:05:07.307Z,80.70
2022-07-25T04:07:34.188Z,80.42
2022-07-25T04:10:01.353Z,80.16
2022-07-25T04:12:27.926Z,80.28
2022-07-25T04:14:54.304Z,80.24
2022-07-25T04:17:20.905Z,80.19
2022-07-25T04:19:47.920Z,79.22
2022-07-25T04:22:14.703Z,79.73
2022-07-25T04:24:41.112Z,79.85
2022-07-25T04:27:07.523Z,79.86
2022-07-25T04:29:33.935Z,79.61
2022-07-25T04:32:00.409Z,79.21
2022-07-25T04:34:26.937Z,79.50
2022-07-25T04:36:53.331Z,79.08
2022-07-25T04:39:19.762Z,78.71
2022-07-25T04:41:46.216Z,78.72
2022-07-25T04:44:12.635Z,78.70
2022-07-25T04:46:40.916Z,78.52
2022-07-25T04:49:08.388Z,78.11
2022-07-25T04:51:34.989Z,77.94
2022-07-25T04:54:01.405Z,77.27
2022-07-25T04:56:27.816Z,77.03
2022-07-25T04:58:58.711Z,77.23
2022-07-25T05:01:28.496Z,76.42
2022-07-25T05:03:55.000Z,75.59
2022-07-25T05:06:21.382Z,74.76
2022-07-25T05:08:47.894Z,74.59
2022-07-25T05:11:14.456Z,74.48
2022-07-25T05:13:40.967Z,73.34
2022-07-25T05:16:07.655Z,72.85
2022-07-25T05:18:35.162Z,72.51
2022-07-25T05:21:01.614Z,72.72
2022-07-25T05:23:28.299Z,72.80
2022-07-25T05:25:57.623Z,71.78
2022-07-25T05:28:24.074Z,71.88
2022-07-25T05:30:50.504Z,70.08
2022-07-25T05:33:16.943Z,63.55
2022-07-25T05:35:43.586Z,58.79
2022-07-25T05:38:10.088Z,58.43
2022-07-25T05:40:36.548Z,58.96
2022-07-25T05:43:03.788Z,59.21
2022-07-25T05:45:30.949Z,58.64
2022-07-25T05:47:57.480Z,56.10
2022-07-25T05:50:24.117Z,56.82
2022-07-25T05:52:50.556Z,55.59
2022-07-25T05:55:17.541Z,55.64
2022-07-25T05:57:44.079Z,57.69
2022-07-25T06:00:18.932Z,59.95
2022-07-25T06:02:53.019Z,60.26
2022-07-25T06:05:19.547Z,62.27
2022-07-25T06:07:46.329Z,62.69
2022-07-25T06:10:12.718Z,63.46
2022-07-25T06:12:39.144Z,63.15
2022-07-25T06:15:07.190Z,63.51
2022-07-25T06:17:39.063Z,62.65
2022-07-25T06:20:06.923Z,60.58
2022-07-25T06:22:33.335Z,56.69
2022-07-25T06:25:02.163Z,51.49
2022-07-25T06:27:29.542Z,49.92
2022-07-25T06:29:56.268Z,48.07
2022-07-25T06:32:22.841Z,45.08
2022-07-25T06:34:57.152Z,44.62
2022-07-25T06:37:23.786Z,45.25
2022-07-25T06:39:50.177Z,47.10
2022-07-25T06:42:16.623Z,48.90
2022-07-25T06:44:43.144Z,48.96
2022-07-25T06:47:12.881Z,49.99
2022-07-25T06:49:40.777Z,51.96
2022-07-25T06:52:07.451Z,53.20
2022-07-25T06:54:33.946Z,52.21
2022-07-25T06:57:06.919Z,50.47
2022-07-25T06:59:33.884Z,49.77
2022-07-25T07:02:00.280Z,48.20
2022-07-25T07:04:27.031Z,44.02
2022-07-25T07:06:53.620Z,43.84
2022-07-25T07:09:20.007Z,45.70
2022-07-25T07:11:46.451Z,48.54
2022-07-25T07:14:12.886Z,49.33
2022-07-25T07:16:41.339Z,51.57
2022-07-25T07:19:10.862Z,52.78
2022-07-25T07:21:37.611Z,51.66
2022-07-25T07:24:04.031Z,49.03
2022-07-25T07:26:50.044Z,49.26
2022-07-25T07:29:16.524Z,49.51
2022-07-25T07:31:43.000Z,49.77
2022-07-25T07:34:09.572Z,49.92
2022-07-25T07:36:40.842Z,51.10
2022-07-25T07:39:08.174Z,50.88
2022-07-25T07:41:35.056Z,52.65
2022-07-25T07:44:01.550Z,53.07
2022-07-25T07:46:28.281Z,52.74
2022-07-25T07:48:54.829Z,52.86
2022-07-25T07:51:21.247Z,53.18
2022-07-25T07:54:06.357Z,52.22
2022-07-25T07:56:32.728Z,52.06
2022-07-25T07:58:59.437Z,52.50
2022-07-25T08:01:26.913Z,52.78
2022-07-25T08:03:57.950Z,53.45
2022-07-25T08:06:33.943Z,52.36
2022-07-25T08:09:00.581Z,52.86
2022-07-25T08:11:34.977Z,52.52
2022-07-25T08:14:01.760Z,51.68
2022-07-25T08:16:31.492Z,52.48
2022-07-25T08:18:58.935Z,51.44
2022-07-25T08:21:25.491Z,50.76
2022-07-25T08:23:52.949Z,50.37
2022-07-25T08:26:26.217Z,49.81
2022-07-25T08:29:17.237Z,50.67
2022-07-25T08:31:42.779Z,51.16
2022-07-25T08:34:10.953Z,51.44
2022-07-25T08:36:42.922Z,51.44
2022-07-25T08:39:14.756Z,51.78
2022-07-25T08:41:41.360Z,53.24
2022-07-25T08:44:09.617Z,53.71
2022-07-25T08:46:37.816Z,54.08
2022-07-25T08:49:04.516Z,54.88
2022-07-25T08:51:33.156Z,53.89
2022-07-25T08:54:02.259Z,53.39
2022-07-25T08:56:28.666Z,52.97
2022-07-25T08:58:58.812Z,52.46
2022-07-25T09:01:25.262Z,52.35
2022-07-25T09:03:51.921Z,52.48
2022-07-25T09:06:20.558Z,51.65
2022-07-25T09:08:58.708Z,52.30
2022-07-25T09:11:43.919Z,52.60
2022-07-25T09:14:20.898Z,53.70
2022-07-25T09:16:51.944Z,53.05
2022-07-25T09:19:24.091Z,52.58
2022-07-25T09:22:04.747Z,53.14
2022-07-25T09:24:32.451Z,53.61
2022-07-25T09:27:01.942Z,53.19
2022-07-25T09:29:34.161Z,51.62
2022-07-25T09:32:01.800Z,52.19
2022-07-25T09:34:39.236Z,52.84
2022-07-25T09:37:08.094Z,53.32
2022-07-25T09:39:49.299Z,54.05
2022-07-25T09:42:16.965Z,54.58
2022-07-25T09:44:44.111Z,56.05
2022-07-25T09:47:12.138Z,53.63
2022-07-25T09:49:43.025Z,54.03
2022-07-25T09:52:10.879Z,53.25
2022-07-25T09:54:38.766Z,53.07
2022-07-25T09:57:05.491Z,52.41
2022-07-25T09:59:34.391Z,50.79
2022-07-25T10:02:11.710Z,51.99
2022-07-25T10:04:45.939Z,50.16
2022-07-25T10:07:15.630Z,49.60
2022-07-25T10:09:51.605Z,48.27
2022-07-25T10:12:23.212Z,48.04
2022-07-25T10:15:13.088Z,49.85
2022-07-25T10:17:41.772Z,51.11
2022-07-25T10:20:10.241Z,51.31
2022-07-25T10:22:55.853Z,50.59
2022-07-25T10:25:23.223Z,52.53
2022-07-25T10:27:52.957Z,50.89
2022-07-25T10:30:34.561Z,50.14
2022-07-25T10:33:19.852Z,51.57
2022-07-25T10:35:46.536Z,50.63
2022-07-25T10:38:13.307Z,51.71
2022-07-25T10:40:42.602Z,51.91
2022-07-25T10:43:13.161Z,52.32
2022-07-25T10:45:43.397Z,53.46
2022-07-25T10:48:12.297Z,53.46
2022-07-25T10:51:09.949Z,52.84
2022-07-25T10:53:46.934Z,52.59
2022-07-25T10:56:21.921Z,51.72
2022-07-25T10:58:58.409Z,51.00
2022-07-25T11:01:27.853Z,51.37
2022-07-25T11:03:56.739Z,52.05
2022-07-25T11:06:30.585Z,52.51
2022-07-25T11:09:00.139Z,52.02
2022-07-25T11:11:34.224Z,52.84
2022-07-25T11:14:00.972Z,51.37
2022-07-25T11:16:27.831Z,51.03
2022-07-25T11:18:54.880Z,50.58
2022-07-25T11:21:21.344Z,51.61
2022-07-25T11:23:52.969Z,50.42
2022-07-25T11:26:19.729Z,52.02
2022-07-25T11:28:48.927Z,50.89
2022-07-25T11:31:17.646Z,51.22
2022-07-25T11:33:48.929Z,51.31
2022-07-25T11:36:16.067Z,51.59
2022-07-25T11:38:42.913Z,50.39
2022-07-25T11:41:09.581Z,50.88
2022-07-25T11:43:36.027Z,51.28
2022-07-25T11:46:06.624Z,51.47
2022-07-25T11:48:36.706Z,51.38
2022-07-25T11:51:19.556Z,53.28
2022-07-25T11:53:51.346Z,54.66
2022-07-25T11:59:10.033Z,55.55
2022-07-25T12:01:42.139Z,55.55
2022-07-25T12:04:14.409Z,55.76
2022-07-25T12:06:42.849Z,55.42
2022-07-25T12:09:20.380Z,55.20
2022-07-25T12:11:48.749Z,55.48
2022-07-25T12:14:16.231Z,56.10
2022-07-25T12:16:42.730Z,55.79
2022-07-25T12:19:18.121Z,56.10
2022-07-25T12:21:45.023Z,55.98
2022-07-25T12:24:11.413Z,55.94
2022-07-25T12:26:37.794Z,56.47
2022-07-25T12:29:04.694Z,57.09
2022-07-25T12:31:31.501Z,57.32
2022-07-25T12:33:59.271Z,57.08
2022-07-25T12:36:25.731Z,56.91
2022-07-25T12:38:52.121Z,56.71
2022-07-25T12:41:22.540Z,57.02
2022-07-25T12:43:49.705Z,55.63
2022-07-25T12:46:22.934Z,56.27
2022-07-25T12:48:49.828Z,54.70
2022-07-25T12:51:16.496Z,52.85
2022-07-25T12:53:42.887Z,51.54
2022-07-25T12:56:09.874Z,50.34
2022-07-25T12:58:36.894Z,50.13
2022-07-25T13:01:04.413Z,49.29
2022-07-25T13:03:30.879Z,49.40
2022-07-25T13:05:57.281Z,49.46
2022-07-25T13:08:24.551Z,48.38
2022-07-25T13:10:50.992Z,46.80
2022-07-25T13:13:17.377Z,46.45
2022-07-25T13:15:43.812Z,45.56
2022-07-25T13:18:10.218Z,45.81
2022-07-25T13:20:37.424Z,45.19
2022-07-25T13:23:04.031Z,43.50
2022-07-25T13:25:31.255Z,44.87
2022-07-25T13:27:57.647Z,44.53
2022-07-25T13:30:24.261Z,43.53
2022-07-25T13:32:51.642Z,43.51
2022-07-25T13:35:20.674Z,43.33
2022-07-25T13:37:48.147Z,43.07
2022-07-25T13:40:14.741Z,43.08
2022-07-25T13:42:41.169Z,44.99
2022-07-25T13:45:08.031Z,45.03
2022-07-25T13:47:35.798Z,44.99
2022-07-25T13:50:02.318Z,45.44
2022-07-25T13:52:28.706Z,44.71
2022-07-25T13:54:55.121Z,43.94
2022-07-25T13:57:21.560Z,43.98
2022-07-25T13:59:47.961Z,42.11
2022-07-25T14:02:14.524Z,42.87
2022-07-25T14:04:41.052Z,42.43
2022-07-25T14:07:07.520Z,41.95
2022-07-25T14:09:34.001Z,41.55
2022-07-25T14:12:00.387Z,40.89
2022-07-25T14:14:26.767Z,41.84
2022-07-25T14:16:53.607Z,42.68
2022-07-25T14:19:20.631Z,43.16
2022-07-25T14:21:47.094Z,42.65
2022-07-25T14:24:13.619Z,42.14
2022-07-25T14:26:49.125Z,42.08
2022-07-25T14:29:15.664Z,41.20
2022-07-25T14:31:42.123Z,40.82
2022-07-25T14:34:08.701Z,41.73
2022-07-25T14:36:35.243Z,41.21
2022-07-25T14:39:03.639Z,40.85
2022-07-25T14:41:30.153Z,41.79
2022-07-25T14:43:56.592Z,42.33
2022-07-25T14:46:23.101Z,43.21
2022-07-25T14:48:49.738Z,42.64
2022-07-25T14:51:17.984Z,41.12
2022-07-25T14:53:44.384Z,40.25
2022-07-25T14:56:11.877Z,37.76
2022-07-25T14:58:39.232Z,39.86
2022-07-25T15:01:06.140Z,39.67
2022-07-25T15:03:32.788Z,39.37
2022-07-25T15:05:59.212Z,37.90
2022-07-25T15:08:25.683Z,37.70
2022-07-25T15:10:52.217Z,37.07
2022-07-25T15:13:30.898Z,38.89
2022-07-25T15:15:58.577Z,39.53
2022-07-25T15:18:25.278Z,39.53
2022-07-25T15:20:52.090Z,39.15
2022-07-25T15:23:20.747Z,40.17
2022-07-25T15:26:04.051Z,39.29
2022-07-25T15:28:35.876Z,39.55
2022-07-25T15:31:03.076Z,39.67
2022-07-25T15:33:29.580Z,39.32
2022-07-25T15:35:56.013Z,39.77
2022-07-25T15:38:22.908Z,39.66
2022-07-25T15:40:49.439Z,39.99
2022-07-25T15:43:16.856Z,39.26
2022-07-25T15:45:45.872Z,38.44
2022-07-25T15:48:13.939Z,37.75
2022-07-25T15:50:43.589Z,38.02
2022-07-25T15:53:11.177Z,37.49
2022-07-25T15:55:39.191Z,38.61
2022-07-25T15:58:06.590Z,38.77
2022-07-25T16:00:33.743Z,40.65
2022-07-25T16:03:06.905Z,41.66
2022-07-25T16:05:34.201Z,41.35
2022-07-25T16:08:01.915Z,41.55
2022-07-25T16:10:29.841Z,41.75
2022-07-25T16:12:56.328Z,42.79
2022-07-25T16:15:22.824Z,42.96
2022-07-25T16:17:51.816Z,42.63
2022-07-25T16:20:18.462Z,44.32
2022-07-25T16:22:47.135Z,44.02
2022-07-25T16:25:13.841Z,43.74
2022-07-25T16:27:40.447Z,44.19
2022-07-25T16:30:07.860Z,44.55
2022-07-25T16:32:34.464Z,45.03
2022-07-25T16:35:00.832Z,43.85
2022-07-25T16:37:27.278Z,44.54
2022-07-25T16:39:53.731Z,44.20
2022-07-25T16:42:20.265Z,43.77
2022-07-25T16:44:48.481Z,43.95
2022-07-25T16:47:14.908Z,44.42
2022-07-25T16:49:41.330Z,44.80
2022-07-25T16:52:07.782Z,46.21
2022-07-25T16:54:34.207Z,46.39
2022-07-25T16:57:01.007Z,47.17
2022-07-25T16:59:27.389Z,47.18
2022-07-25T17:01:53.952Z,46.08
2022-07-25T17:04:26.890Z,46.18
2022-07-25T17:06:53.411Z,46.03
2022-07-25T17:09:20.047Z,47.03
2022-07-25T17:11:46.444Z,47.10
2022-07-25T17:14:12.984Z,47.36
2022-07-25T17:16:41.154Z,47.06
2022-07-25T17:19:07.810Z,46.96
2022-07-25T17:21:35.577Z,47.02
2022-07-25T17:24:02.053Z,48.00
2022-07-25T17:26:28.667Z,47.58
2022-07-25T17:28:55.482Z,48.89
2022-07-25T17:31:28.016Z,48.33
2022-07-25T17:33:54.575Z,50.29
2022-07-25T17:36:21.820Z,49.97
2022-07-25T17:38:48.238Z,50.48
2022-07-25T17:41:14.632Z,50.46
2022-07-25T17:43:41.431Z,51.53
2022-07-25T17:46:10.872Z,51.95
2022-07-25T17:48:37.460Z,51.90
2022-07-25T17:51:04.034Z,52.20
2022-07-25T17:53:30.775Z,53.18
2022-07-25T17:56:03.878Z,53.58
2022-07-25T17:58:31.503Z,54.45
2022-07-25T18:01:01.164Z,54.80
2022-07-25T18:03:28.424Z,54.95
2022-07-25T18:05:55.574Z,55.04
2022-07-25T18:08:22.351Z,55.60
2022-07-25T18:10:49.864Z,55.78
2022-07-25T18:13:17.782Z,55.46
2022-07-25T18:15:45.594Z,55.86
2022-07-25T18:18:16.951Z,56.57
2022-07-25T18:20:46.962Z,56.22
2022-07-25T18:23:13.473Z,56.50
2022-07-25T18:25:40.565Z,56.51
2022-07-25T18:28:07.276Z,57.08
2022-07-25T18:30:33.733Z,57.95
2022-07-25T18:33:00.390Z,57.94
2022-07-25T18:35:27.030Z,58.06
2022-07-25T18:37:53.639Z,58.24
2022-07-25T18:40:20.771Z,57.56
2022-07-25T18:42:47.654Z,57.40
2022-07-25T18:45:14.323Z,57.83
2022-07-25T18:47:40.955Z,58.28
2022-07-25T18:50:08.252Z,58.16
2022-07-25T18:52:36.068Z,58.21
2022-07-25T18:55:04.454Z,58.79
2022-07-25T18:57:31.096Z,58.94
2022-07-25T19:00:02.448Z,58.91
2022-07-25T19:02:29.725Z,59.05
2022-07-25T19:04:56.378Z,58.92
2022-07-25T19:07:23.013Z,59.27
2022-07-25T19:09:49.479Z,59.24
2022-07-25T19:12:15.864Z,59.92
2022-07-25T19:14:42.291Z,60.44
2022-07-25T19:17:10.421Z,60.29
2022-07-25T19:19:37.037Z,60.43
2022-07-25T19:22:03.719Z,61.02
2022-07-25T19:24:31.345Z,61.29
2022-07-25T19:26:58.947Z,61.90
2022-07-25T19:29:26.600Z,62.32
2022-07-25T19:31:53.141Z,62.51
2022-07-25T19:34:19.625Z,63.25
2022-07-25T19:36:46.094Z,63.11
2022-07-25T19:39:19.874Z,63.46
2022-07-25T19:41:48.153Z,63.79
2022-07-25T19:44:14.942Z,63.82
2022-07-25T19:46:41.372Z,64.77
2022-07-25T19:49:08.058Z,64.41
2022-07-25T19:51:35.630Z,64.97
2022-07-25T19:54:08.213Z,65.08
2022-07-25T19:56:35.096Z,65.42
2022-07-25T19:59:01.724Z,65.19
2022-07-25T20:01:30.393Z,65.04
2022-07-25T20:03:57.348Z,65.54
2022-07-25T20:06:24.731Z,65.44
2022-07-25T20:08:51.270Z,65.82
2022-07-25T20:11:17.800Z,65.51
2022-07-25T20:13:44.264Z,66.00
2022-07-25T20:16:11.065Z,66.22
2022-07-25T20:18:37.772Z,66.32
2022-07-25T20:21:04.687Z,67.16
2022-07-25T20:23:31.252Z,67.31
2022-07-25T20:25:58.060Z,67.85
2022-07-25T20:28:24.503Z,68.11
2022-07-25T20:30:51.122Z,68.13
2022-07-25T20:33:18.162Z,68.61
2022-07-25T20:35:45.125Z,68.87
2022-07-25T20:38:11.511Z,68.95
2022-07-25T20:40:46.390Z,69.14
2022-07-25T20:43:15.890Z,69.36
2022-07-25T20:45:42.407Z,69.47
2022-07-25T20:48:12.277Z,69.65
2022-07-25T20:50:39.437Z,70.21
2022-07-25T20:53:07.030Z,70.65
2022-07-25T20:55:33.935Z,70.99
2022-07-25T20:58:00.833Z,71.47
2022-07-25T21:00:28.730Z,71.41
2022-07-25T21:02:55.345Z,71.65
2022-07-25T21:05:22.061Z,71.97
2022-07-25T21:07:48.726Z,72.30
2022-07-25T21:10:15.500Z,72.42
2022-07-25T21:12:42.434Z,72.54
2022-07-25T21:15:09.339Z,72.85
2022-07-25T21:17:35.730Z,73.26
2022-07-25T21:20:02.365Z,73.58
2022-07-25T21:22:28.885Z,73.35
2022-07-25T21:24:55.367Z,73.65
2022-07-25T21:27:21.931Z,73.90
2022-07-25T21:29:48.331Z,73.83
2022-07-25T21:32:15.817Z,74.39
2022-07-25T21:34:44.179Z,74.27
2022-07-25T21:37:10.688Z,74.61
2022-07-25T21:39:37.310Z,74.84
2022-07-25T21:42:05.265Z,74.88
2022-07-25T21:44:31.873Z,75.26
2022-07-25T21:46:58.252Z,75.61
2022-07-25T21:49:43.358Z,75.58
2022-07-25T21:52:13.817Z,75.37
2022-07-25T21:54:41.765Z,75.95
2022-07-25T21:57:13.604Z,76.11
2022-07-25T21:59:44.822Z,76.23
2022-07-25T22:02:11.696Z,76.76
2022-07-25T22:04:38.317Z,77.03
2022-07-25T22:07:04.873Z,77.05
2022-07-25T22:09:31.449Z,77.10
2022-07-25T22:12:00.061Z,77.91
2022-07-25T22:14:26.706Z,77.55
2022-07-25T22:16:53.513Z,77.87
2022-07-25T22:19:22.549Z,78.50
2022-07-25T22:21:49.651Z,78.47
2022-07-25T22:24:16.336Z,78.40
2022-07-25T22:26:42.993Z,78.48
2022-07-25T22:29:09.778Z,78.44
2022-07-25T22:31:38.791Z,78.73
2022-07-25T22:34:05.563Z,78.82
2022-07-25T22:36:32.153Z,78.67
2022-07-25T22:38:58.552Z,78.80
2022-07-25T22:41:24.944Z,78.79
2022-07-25T22:43:57.641Z,78.94
2022-07-25T22:46:26.248Z,79.68
2022-07-25T22:48:52.795Z,79.60
2022-07-25T22:51:19.294Z,79.91
2022-07-25T22:53:46.067Z,79.97
2022-07-25T22:56:12.485Z,79.98
2022-07-25T22:58:38.890Z,80.15
2022-07-25T23:01:05.393Z,80.31
2022-07-25T23:03:33.391Z,80.20
2022-07-25T23:06:00.116Z,80.49
2022-07-25T23:08:26.585Z,80.04
2022-07-25T23:10:53.166Z,80.27
2022-07-25T23:13:19.842Z,80.35
2022-07-25T23:15:51.265Z,80.28
2022-07-25T23:18:19.707Z,80.61
2022-07-25T23:20:46.419Z,80.44
2022-07-25T23:23:13.724Z,80.80
2022-07-25T23:25:40.351Z,81.15
2022-07-25T23:28:06.752Z,81.28
2022-07-25T23:30:36.720Z,81.01
2022-07-25T23:33:06.599Z,81.34
2022-07-25T23:35:33.150Z,81.19
2022-07-25T23:37:59.534Z,81.40
2022-07-25T23:40:26.759Z,81.49
2022-07-25T23:42:54.309Z,81.80
2022-07-25T23:45:21.493Z,82.01
2022-07-25T23:47:48.264Z,82.05
2022-07-25T23:50:15.544Z,82.19
2022-07-25T23:52:42.052Z,82.07
2022-07-25T23:55:09.060Z,82.37
2022-07-25T23:57:35.526Z,82.06
